createdAt,value
2022-08-14T00:02:01.532Z,22.67
2022-08-14T00:04:42.413Z,22.63
2022-08-14T00:07:14.612Z,22.61
2022-08-14T00:10:02.165Z,22.56
2022-08-14T00:12:39.095Z,22.39
2022-08-14T00:15:37.404Z,22.47
2022-08-14T00:18:31.034Z,22.39
2022-08-14T00:21:03.199Z,22.39
2022-08-14T00:23:31.081Z,22.39
2022-08-14T00:26:05.935Z,22.38
2022-08-14T00:28:36.858Z,22.38
2022-08-14T00:31:05.539Z,22.33
2022-08-14T00:33:51.667Z,22.29
2022-08-14T00:36:37.544Z,22.26
2022-08-14T00:39:13.957Z,22.27
2022-08-14T00:41:42.441Z,22.11
2022-08-14T00:44:10.308Z,22.12
2022-08-14T00:46:38.931Z,22.10
2022-08-14T00:49:11.555Z,22.02
2022-08-14T00:51:44.519Z,22.07
2022-08-14T00:54:21.553Z,22.07
2022-08-14T00:56:55.255Z,21.98
2022-08-14T00:59:28.899Z,21.99
2022-08-14T01:02:01.036Z,21.92
2022-08-14T01:04:51.510Z,21.89
2022-08-14T01:07:21.738Z,21.79
2022-08-14T01:09:55.413Z,21.76
2022-08-14T01:12:26.403Z,21.68
2022-08-14T01:14:55.700Z,21.62
2022-08-14T01:17:50.461Z,21.55
2022-08-14T01:20:40.088Z,21.53
2022-08-14T01:23:16.832Z,21.55
2022-08-14T01:25:51.296Z,21.48
2022-08-14T01:28:46.229Z,21.42
2022-08-14T01:31:19.691Z,21.42
2022-08-14T01:34:00.166Z,21.40
2022-08-14T01:36:38.912Z,21.37
2022-08-14T01:39:16.294Z,21.38
2022-08-14T01:41:53.179Z,21.36
2022-08-14T01:44:32.241Z,21.36
2022-08-14T01:47:21.535Z,21.24
2022-08-14T01:49:59.861Z,21.33
2022-08-14T01:52:58.923Z,21.33
2022-08-14T01:55:22.352Z,21.32
2022-08-14T01:58:01.908Z,21.25
2022-08-14T02:00:39.139Z,21.21
2022-08-14T02:03:07.383Z,21.15
2022-08-14T02:05:38.340Z,21.13
2022-08-14T02:08:09.632Z,21.10
2022-08-14T02:10:46.109Z,21.12
2022-08-14T02:13:16.853Z,21.11
2022-08-14T02:15:45.661Z,21.05
2022-08-14T02:18:15.138Z,21.02
2022-08-14T02:20:42.923Z,21.03
2022-08-14T02:23:12.546Z,21.02
2022-08-14T02:25:44.409Z,21.01
2022-08-14T02:28:56.277Z,21.00
2022-08-14T02:31:09.732Z,20.94
2022-08-14T02:33:39.241Z,21.03
2022-08-14T02:37:02.850Z,21.03
2022-08-14T02:38:57.577Z,21.00
2022-08-14T02:41:28.572Z,21.00
2022-08-14T02:44:00.815Z,21.01
2022-08-14T02:46:32.566Z,20.99
2022-08-14T02:49:06.398Z,20.99
2022-08-14T02:51:36.535Z,21.00
2022-08-14T02:54:07.509Z,21.02
2022-08-14T02:57:16.604Z,21.01
2022-08-14T02:59:33.752Z,21.02
2022-08-14T03:02:02.319Z,21.01
2022-08-14T03:04:30.408Z,20.98
2022-08-14T03:07:07.364Z,20.97
2022-08-14T03:09:41.866Z,20.93
2022-08-14T03:12:31.360Z,20.84
2022-08-14T03:15:03.310Z,20.90
2022-08-14T03:17:41.100Z,20.92
2022-08-14T03:20:19.371Z,20.84
2022-08-14T03:22:50.910Z,20.92
2022-08-14T03:25:18.376Z,20.88
2022-08-14T03:27:48.320Z,20.93
2022-08-14T03:30:39.444Z,20.83
2022-08-14T03:33:12.599Z,20.94
2022-08-14T03:36:00.425Z,20.85
2022-08-14T03:39:13.004Z,20.92
2022-08-14T03:41:23.002Z,21.02
2022-08-14T03:44:01.179Z,21.05
2022-08-14T03:46:52.942Z,21.03
2022-08-14T03:49:24.428Z,21.02
2022-08-14T03:51:57.501Z,21.05
2022-08-14T03:54:26.090Z,21.06
2022-08-14T03:56:54.777Z,21.04
2022-08-14T03:59:22.329Z,21.08
2022-08-14T04:01:57.917Z,21.03
2022-08-14T04:04:29.016Z,21.04
2022-08-14T04:06:59.534Z,21.10
2022-08-14T04:09:27.846Z,21.12
2022-08-14T04:11:56.237Z,21.21
2022-08-14T04:14:27.248Z,21.24
2022-08-14T04:16:54.959Z,21.25
2022-08-14T04:19:24.679Z,21.29
2022-08-14T04:22:03.266Z,21.31
2022-08-14T04:24:38.001Z,21.33
2022-08-14T04:27:11.933Z,21.34
2022-08-14T04:29:42.697Z,21.39
2022-08-14T04:33:02.736Z,21.38
2022-08-14T04:35:01.218Z,21.31
2022-08-14T04:37:53.686Z,21.29
2022-08-14T04:40:40.763Z,21.35
2022-08-14T04:43:29.903Z,21.38
2022-08-14T04:46:54.722Z,21.36
2022-08-14T04:49:00.163Z,21.34
2022-08-14T04:51:28.129Z,21.37
2022-08-14T04:53:57.656Z,21.39
2022-08-14T04:56:31.428Z,21.44
2022-08-14T04:59:10.512Z,21.48
2022-08-14T05:01:48.033Z,21.55
2022-08-14T05:04:21.013Z,21.55
2022-08-14T05:06:49.329Z,21.56
2022-08-14T05:09:17.129Z,21.61
2022-08-14T05:11:44.770Z,21.62
2022-08-14T05:14:32.995Z,21.68
2022-08-14T05:17:01.925Z,21.68
2022-08-14T05:19:32.536Z,21.63
2022-08-14T05:22:16.701Z,21.62
2022-08-14T05:24:51.244Z,21.67
2022-08-14T05:27:23.228Z,21.72
2022-08-14T05:29:56.936Z,21.75
2022-08-14T05:32:27.579Z,21.85
2022-08-14T05:34:58.650Z,21.98
2022-08-14T05:37:28.141Z,22.13
2022-08-14T05:39:55.822Z,22.25
2022-08-14T05:42:29.462Z,22.27
2022-08-14T05:45:02.299Z,22.44
2022-08-14T05:47:34.145Z,22.59
2022-08-14T05:50:17.142Z,22.65
2022-08-14T05:52:45.452Z,22.55
2022-08-14T05:55:12.613Z,22.45
2022-08-14T05:58:02.565Z,22.44
2022-08-14T06:00:38.574Z,22.39
2022-08-14T06:03:10.526Z,22.39
2022-08-14T06:05:38.631Z,22.45
2022-08-14T06:08:08.569Z,22.54
2022-08-14T06:10:51.216Z,22.61
2022-08-14T06:13:20.055Z,22.71
2022-08-14T06:15:49.539Z,22.84
2022-08-14T06:18:17.686Z,23.04
2022-08-14T06:20:45.900Z,23.16
2022-08-14T06:23:13.592Z,23.34
2022-08-14T06:25:41.934Z,23.42
2022-08-14T06:28:27.295Z,23.51
2022-08-14T06:30:56.391Z,23.55
2022-08-14T06:33:30.066Z,23.57
2022-08-14T06:36:12.609Z,23.50
2022-08-14T06:38:46.351Z,23.42
2022-08-14T06:41:20.743Z,23.36
2022-08-14T06:44:00.300Z,23.32
2022-08-14T06:46:34.232Z,23.32
2022-08-14T06:49:04.462Z,23.32
2022-08-14T06:51:44.586Z,23.31
2022-08-14T06:54:13.075Z,23.23
2022-08-14T06:56:44.385Z,23.31
2022-08-14T06:59:20.033Z,23.36
2022-08-14T07:02:06.378Z,23.47
2022-08-14T07:04:59.589Z,23.84
2022-08-14T07:07:28.589Z,24.27
2022-08-14T07:09:55.997Z,24.70
2022-08-14T07:12:54.851Z,24.96
2022-08-14T07:15:11.705Z,25.35
2022-08-14T07:17:52.156Z,25.61
2022-08-14T07:20:31.139Z,25.73
2022-08-14T07:23:06.707Z,25.94
2022-08-14T07:25:42.208Z,26.20
2022-08-14T07:28:24.585Z,26.43
2022-08-14T07:31:04.797Z,26.62
2022-08-14T07:33:41.958Z,26.81
2022-08-14T07:36:27.930Z,26.94
2022-08-14T07:39:02.772Z,27.05
2022-08-14T07:41:35.716Z,27.19
2022-08-14T07:44:29.406Z,27.40
2022-08-14T07:46:51.452Z,27.62
2022-08-14T07:49:21.260Z,27.69
2022-08-14T07:51:51.900Z,27.89
2022-08-14T07:54:23.553Z,28.05
2022-08-14T07:57:00.044Z,28.25
2022-08-14T07:59:42.344Z,28.44
2022-08-14T08:02:19.143Z,28.57
2022-08-14T08:04:59.406Z,28.59
2022-08-14T08:07:31.372Z,28.52
2022-08-14T08:10:00.781Z,28.55
2022-08-14T08:12:31.201Z,28.64
2022-08-14T08:15:03.209Z,28.69
2022-08-14T08:17:53.207Z,28.85
2022-08-14T08:20:27.533Z,28.93
2022-08-14T08:23:06.016Z,29.16
2022-08-14T08:25:39.737Z,29.39
2022-08-14T08:28:22.384Z,29.40
2022-08-14T08:30:57.020Z,29.52
2022-08-14T08:33:32.047Z,29.73
2022-08-14T08:36:03.860Z,29.73
2022-08-14T08:39:14.552Z,29.43
2022-08-14T08:41:18.941Z,29.15
2022-08-14T08:43:47.025Z,29.22
2022-08-14T08:46:24.091Z,29.21
2022-08-14T08:51:31.270Z,29.54
2022-08-14T08:54:18.639Z,29.80
2022-08-14T08:56:49.124Z,29.79
2022-08-14T08:59:42.541Z,29.71
2022-08-14T09:02:10.806Z,29.79
2022-08-14T09:04:45.393Z,29.96
2022-08-14T09:07:31.110Z,30.00
2022-08-14T09:10:00.538Z,30.06
2022-08-14T09:12:32.213Z,30.15
2022-08-14T09:15:11.434Z,30.21
2022-08-14T09:17:44.611Z,30.08
2022-08-14T09:20:25.712Z,29.97
2022-08-14T09:22:55.463Z,29.73
2022-08-14T09:26:01.325Z,29.66
2022-08-14T09:28:11.980Z,29.77
2022-08-14T09:30:48.246Z,29.54
2022-08-14T09:33:31.020Z,29.36
2022-08-14T09:36:04.622Z,29.24
2022-08-14T09:38:44.859Z,29.11
2022-08-14T09:42:21.104Z,29.35
2022-08-14T09:45:08.762Z,29.65
2022-08-14T09:47:54.459Z,29.81
2022-08-14T09:50:26.895Z,30.09
2022-08-14T09:52:58.785Z,30.30
2022-08-14T09:55:28.358Z,30.53
2022-08-14T09:58:19.859Z,30.86
2022-08-14T10:01:00.940Z,30.82
2022-08-14T10:03:34.694Z,30.75
2022-08-14T10:06:10.099Z,30.65
2022-08-14T10:08:44.424Z,30.70
2022-08-14T10:11:24.071Z,30.66
2022-08-14T10:13:56.014Z,30.38
2022-08-14T10:16:33.430Z,30.29
2022-08-14T10:19:10.979Z,30.59
2022-08-14T10:21:58.552Z,30.65
2022-08-14T10:24:40.491Z,30.88
2022-08-14T10:27:19.602Z,30.68
2022-08-14T10:29:58.122Z,30.58
2022-08-14T10:32:28.415Z,30.40
2022-08-14T10:35:13.490Z,30.55
2022-08-14T10:37:48.580Z,30.59
2022-08-14T10:40:37.354Z,30.87
2022-08-14T10:43:22.900Z,31.52
2022-08-14T10:46:59.042Z,31.93
2022-08-14T10:48:58.740Z,32.14
2022-08-14T10:51:30.322Z,32.19
2022-08-14T10:54:35.570Z,32.09
2022-08-14T10:57:25.229Z,31.62
2022-08-14T10:59:56.860Z,31.59
2022-08-14T11:02:54.193Z,32.01
2022-08-14T11:05:19.533Z,32.36
2022-08-14T11:07:56.523Z,32.51
2022-08-14T11:10:58.130Z,32.38
2022-08-14T11:13:30.121Z,32.19
2022-08-14T11:16:01.182Z,32.01
2022-08-14T11:18:35.668Z,31.97
2022-08-14T11:21:08.299Z,31.73
2022-08-14T11:23:39.787Z,31.59
2022-08-14T11:26:10.244Z,31.34
2022-08-14T11:28:46.735Z,31.46
2022-08-14T11:31:25.904Z,31.43
2022-08-14T11:33:59.392Z,31.45
2022-08-14T11:37:02.941Z,31.46
2022-08-14T11:39:34.924Z,31.49
2022-08-14T11:42:55.450Z,31.72
2022-08-14T11:45:00.198Z,31.87
2022-08-14T11:47:35.503Z,31.77
2022-08-14T11:50:33.786Z,31.59
2022-08-14T11:53:07.797Z,31.17
2022-08-14T11:55:38.005Z,30.79
2022-08-14T11:58:15.605Z,30.35
2022-08-14T12:00:54.634Z,30.01
2022-08-14T12:03:37.840Z,29.79
2022-08-14T12:06:29.592Z,29.86
2022-08-14T12:09:00.707Z,30.08
2022-08-14T12:11:41.338Z,30.01
2022-08-14T12:14:30.551Z,29.81
2022-08-14T12:17:02.362Z,29.51
2022-08-14T12:19:33.452Z,28.92
2022-08-14T12:22:01.380Z,28.34
2022-08-14T12:24:35.996Z,28.12
2022-08-14T12:27:04.540Z,27.97
2022-08-14T12:29:34.870Z,28.14
2022-08-14T12:32:09.103Z,28.24
2022-08-14T12:34:45.078Z,28.13
2022-08-14T12:37:13.100Z,28.41
2022-08-14T12:39:40.930Z,28.53
2022-08-14T12:42:08.932Z,28.65
2022-08-14T12:44:43.221Z,28.57
2022-08-14T12:47:15.541Z,28.68
2022-08-14T12:49:53.820Z,28.69
2022-08-14T12:52:45.180Z,28.47
2022-08-14T12:55:21.595Z,28.69
2022-08-14T12:57:53.215Z,28.88
2022-08-14T13:00:24.220Z,28.98
2022-08-14T13:02:57.023Z,29.01
2022-08-14T13:05:30.260Z,29.10
2022-08-14T13:08:00.021Z,29.26
2022-08-14T13:10:51.598Z,29.40
2022-08-14T13:13:20.763Z,29.28
2022-08-14T13:15:55.965Z,29.20
2022-08-14T13:18:28.148Z,29.09
2022-08-14T13:21:01.193Z,28.91
2022-08-14T13:23:36.374Z,28.87
2022-08-14T13:26:05.335Z,28.98
2022-08-14T13:28:41.259Z,29.05
2022-08-14T13:31:24.294Z,28.92
2022-08-14T13:34:00.452Z,28.86
2022-08-14T13:36:54.710Z,28.84
2022-08-14T13:39:18.807Z,29.00
2022-08-14T13:41:55.917Z,29.07
2022-08-14T13:44:27.186Z,29.02
2022-08-14T13:46:54.980Z,29.04
2022-08-14T13:49:23.903Z,29.02
2022-08-14T13:51:59.207Z,28.86
2022-08-14T13:54:31.584Z,28.53
2022-08-14T13:57:01.542Z,28.57
2022-08-14T13:59:38.376Z,28.63
2022-08-14T14:02:08.072Z,28.63
2022-08-14T14:04:41.189Z,28.64
2022-08-14T14:07:14.700Z,28.62
2022-08-14T14:09:52.798Z,28.56
2022-08-14T14:12:38.011Z,28.51
2022-08-14T14:15:11.853Z,28.46
2022-08-14T14:17:39.940Z,28.48
2022-08-14T14:20:15.197Z,28.49
2022-08-14T14:23:01.214Z,28.42
2022-08-14T14:25:38.716Z,28.44
2022-08-14T14:28:16.182Z,28.47
2022-08-14T14:30:53.858Z,28.47
2022-08-14T14:33:45.259Z,28.52
2022-08-14T14:36:15.342Z,28.60
2022-08-14T14:38:52.910Z,28.79
2022-08-14T14:41:22.908Z,28.94
2022-08-14T14:43:52.657Z,29.03
2022-08-14T14:46:36.092Z,29.05
2022-08-14T14:49:08.908Z,29.00
2022-08-14T14:51:41.071Z,29.05
2022-08-14T14:54:13.307Z,29.09
2022-08-14T14:56:47.823Z,29.09
2022-08-14T14:59:20.223Z,29.09
2022-08-14T15:01:51.446Z,29.12
2022-08-14T15:04:20.916Z,29.15
2022-08-14T15:06:53.173Z,29.11
2022-08-14T15:09:23.761Z,29.08
2022-08-14T15:11:51.660Z,29.13
2022-08-14T15:15:08.149Z,29.07
2022-08-14T15:17:08.570Z,29.15
2022-08-14T15:19:38.220Z,29.08
2022-08-14T15:22:07.594Z,29.00
2022-08-14T15:24:38.659Z,28.91
2022-08-14T15:27:08.433Z,28.82
2022-08-14T15:29:43.180Z,28.68
2022-08-14T15:32:11.020Z,28.60
2022-08-14T15:34:50.962Z,28.49
2022-08-14T15:37:22.862Z,28.38
2022-08-14T15:39:52.742Z,28.37
2022-08-14T15:42:23.381Z,28.30
2022-08-14T15:44:58.616Z,28.23
2022-08-14T15:47:31.120Z,28.17
2022-08-14T15:50:01.244Z,28.14
2022-08-14T15:52:44.705Z,28.03
2022-08-14T15:55:15.590Z,27.97
2022-08-14T15:58:01.625Z,27.94
2022-08-14T16:00:51.636Z,27.97
2022-08-14T16:03:27.934Z,28.02
2022-08-14T16:06:15.335Z,28.03
2022-08-14T16:08:50.013Z,28.06
2022-08-14T16:11:21.851Z,28.04
2022-08-14T16:13:50.233Z,27.97
2022-08-14T16:16:49.159Z,27.92
2022-08-14T16:19:17.851Z,27.90
2022-08-14T16:22:01.930Z,27.87
2022-08-14T16:24:59.588Z,27.86
2022-08-14T16:27:38.978Z,27.87
2022-08-14T16:30:20.839Z,27.86
2022-08-14T16:33:05.278Z,27.81
2022-08-14T16:35:43.362Z,27.80
2022-08-14T16:38:44.968Z,27.79
2022-08-14T16:41:23.103Z,27.72
2022-08-14T16:43:59.283Z,27.71
2022-08-14T16:46:29.019Z,27.67
2022-08-14T16:48:58.732Z,27.61
2022-08-14T16:51:28.319Z,27.65
2022-08-14T16:54:00.741Z,27.63
2022-08-14T16:56:36.220Z,27.61
2022-08-14T16:59:05.298Z,27.60
2022-08-14T17:01:33.294Z,27.57
2022-08-14T17:04:14.843Z,27.54
2022-08-14T17:06:55.260Z,27.47
2022-08-14T17:09:28.384Z,27.48
2022-08-14T17:12:07.235Z,27.45
2022-08-14T17:15:00.500Z,27.46
2022-08-14T17:17:36.810Z,27.46
2022-08-14T17:20:33.984Z,27.44
2022-08-14T17:23:11.117Z,27.42
2022-08-14T17:25:39.190Z,27.36
2022-08-14T17:28:50.448Z,27.35
2022-08-14T17:31:12.358Z,27.29
2022-08-14T17:33:44.499Z,27.27
2022-08-14T17:36:22.451Z,27.22
2022-08-14T17:39:11.920Z,27.16
2022-08-14T17:42:02.934Z,27.11
2022-08-14T17:44:33.821Z,27.03
2022-08-14T17:47:18.402Z,26.98
2022-08-14T17:49:52.243Z,26.96
2022-08-14T17:52:34.204Z,26.91
2022-08-14T17:55:03.702Z,26.86
2022-08-14T17:57:35.182Z,26.71
2022-08-14T18:00:16.733Z,26.52
2022-08-14T18:02:50.487Z,26.44
2022-08-14T18:05:23.454Z,26.27
2022-08-14T18:07:59.956Z,26.16
2022-08-14T18:10:55.218Z,26.03
2022-08-14T18:13:49.984Z,25.94
2022-08-14T18:16:20.249Z,25.88
2022-08-14T18:18:51.687Z,25.77
2022-08-14T18:21:42.049Z,25.74
2022-08-14T18:24:29.206Z,25.61
2022-08-14T18:27:06.873Z,25.60
2022-08-14T18:29:44.259Z,25.56
2022-08-14T18:32:33.290Z,25.51
2022-08-14T18:35:11.421Z,25.47
2022-08-14T18:37:42.402Z,25.39
2022-08-14T18:40:34.286Z,25.38
2022-08-14T18:43:03.611Z,25.31
2022-08-14T18:45:42.896Z,25.31
2022-08-14T18:48:20.099Z,25.29
2022-08-14T18:51:02.620Z,25.28
2022-08-14T18:53:34.228Z,25.24
2022-08-14T18:56:09.338Z,25.25
2022-08-14T18:58:57.304Z,25.25
2022-08-14T19:01:32.069Z,25.21
2022-08-14T19:04:01.747Z,25.18
2022-08-14T19:06:43.059Z,25.08
2022-08-14T19:09:50.542Z,25.10
2022-08-14T19:13:00.622Z,25.07
2022-08-14T19:15:34.659Z,25.05
2022-08-14T19:18:21.617Z,25.02
2022-08-14T19:20:59.024Z,25.06
2022-08-14T19:23:42.360Z,25.06
2022-08-14T19:26:35.323Z,25.03
2022-08-14T19:29:26.022Z,24.99
2022-08-14T19:32:06.795Z,24.96
2022-08-14T19:34:48.243Z,24.93
2022-08-14T19:37:47.477Z,24.91
2022-08-14T19:40:40.381Z,24.86
2022-08-14T19:43:09.398Z,24.80
2022-08-14T19:45:40.140Z,24.72
2022-08-14T19:48:15.755Z,24.68
2022-08-14T19:50:46.755Z,24.66
2022-08-14T19:53:17.220Z,24.56
2022-08-14T19:56:02.385Z,24.61
2022-08-14T19:58:54.007Z,24.57
2022-08-14T20:01:37.116Z,24.50
2022-08-14T20:04:45.265Z,24.42
2022-08-14T20:07:04.253Z,24.37
2022-08-14T20:11:07.975Z,24.21
2022-08-14T20:12:36.447Z,24.32
2022-08-14T20:15:21.173Z,24.33
2022-08-14T20:17:52.951Z,24.33
2022-08-14T20:20:32.066Z,24.31
2022-08-14T20:23:11.126Z,24.25
2022-08-14T20:25:55.651Z,24.28
2022-08-14T20:28:35.439Z,24.27
2022-08-14T20:31:15.865Z,24.20
2022-08-14T20:34:24.877Z,24.14
2022-08-14T20:37:09.763Z,24.01
2022-08-14T20:39:43.745Z,23.96
2022-08-14T20:42:38.213Z,23.93
2022-08-14T20:45:18.302Z,23.82
2022-08-14T20:48:01.736Z,23.71
2022-08-14T20:50:35.301Z,23.73
2022-08-14T20:53:24.534Z,23.70
2022-08-14T20:55:53.433Z,23.64
2022-08-14T20:58:42.061Z,23.57
2022-08-14T21:01:19.053Z,23.47
2022-08-14T21:03:58.208Z,23.40
2022-08-14T21:06:27.374Z,23.34
2022-08-14T21:09:02.223Z,23.30
2022-08-14T21:11:30.541Z,23.26
2022-08-14T21:14:25.157Z,23.22
2022-08-14T21:16:58.497Z,23.17
2022-08-14T21:19:30.182Z,23.13
2022-08-14T21:21:59.462Z,23.14
2022-08-14T21:24:39.571Z,23.16
2022-08-14T21:27:22.020Z,23.19
2022-08-14T21:29:55.256Z,23.20
2022-08-14T21:32:35.326Z,23.21
2022-08-14T21:35:07.913Z,23.18
2022-08-14T21:37:50.784Z,23.14
2022-08-14T21:40:40.753Z,23.15
2022-08-14T21:43:18.244Z,23.16
2022-08-14T21:45:54.013Z,23.14
2022-08-14T21:48:32.654Z,23.10
2022-08-14T21:51:55.196Z,23.13
2022-08-14T21:54:00.373Z,23.11
2022-08-14T21:56:38.654Z,23.12
2022-08-14T21:59:17.919Z,23.11
2022-08-14T22:02:00.859Z,23.00
2022-08-14T22:04:39.909Z,22.99
2022-08-14T22:07:12.117Z,22.98
2022-08-14T22:09:42.858Z,22.99
2022-08-14T22:12:58.160Z,23.00
2022-08-14T22:14:59.317Z,23.00
2022-08-14T22:17:32.401Z,22.94
2022-08-14T22:20:05.218Z,22.94
2022-08-14T22:22:32.705Z,22.91
2022-08-14T22:25:00.993Z,22.91
2022-08-14T22:27:32.349Z,22.81
2022-08-14T22:30:03.040Z,22.80
2022-08-14T22:32:56.354Z,22.75
2022-08-14T22:35:18.594Z,22.67
2022-08-14T22:38:34.935Z,22.68
2022-08-14T22:41:02.399Z,22.67
2022-08-14T22:43:27.846Z,22.62
2022-08-14T22:46:02.080Z,22.57
2022-08-14T22:48:30.156Z,22.55
2022-08-14T22:50:57.381Z,22.51
2022-08-14T22:53:29.412Z,22.47
2022-08-14T22:55:57.304Z,22.51
2022-08-14T22:58:31.768Z,22.56
2022-08-14T23:03:36.280Z,22.51
2022-08-14T23:07:02.850Z,22.48
2022-08-14T23:09:01.587Z,22.41
2022-08-14T23:11:41.312Z,22.29
2022-08-14T23:14:12.357Z,22.25
2022-08-14T23:16:39.983Z,22.23
2022-08-14T23:19:11.785Z,22.18
2022-08-14T23:21:46.323Z,22.16
2022-08-14T23:24:17.314Z,22.19
2022-08-14T23:26:54.897Z,22.23
2022-08-14T23:29:22.653Z,22.22
2022-08-14T23:31:50.464Z,22.20
2022-08-14T23:34:21.280Z,22.16
2022-08-14T23:36:55.526Z,22.12
2022-08-14T23:39:32.909Z,22.11
2022-08-14T23:42:07.549Z,22.09
2022-08-14T23:44:37.941Z,22.03
2022-08-14T23:47:12.225Z,22.03
2022-08-14T23:50:00.678Z,22.03
2022-08-14T23:52:56.111Z,21.90
2022-08-14T23:55:17.547Z,22.08
2022-08-14T23:57:57.645Z,22.05
